sensor_id;sensor_type;location;lat;lon;timestamp;pressure;altitude;pressure_sealevel;temperature;humidity
43701;BME280;58809;47.984;7.964;2023-08-12T00:02:57;97573.06;;;15.69;100.00
43701;BME280;58809;47.984;7.964;2023-08-12T00:05:59;97565.94;;;15.76;100.00
43701;BME280;58809;47.984;7.964;2023-08-12T00:09:07;97561.22;;;15.85;100.00
43701;BME280;58809;47.984;7.964;2023-08-12T00:12:09;97560.16;;;15.93;100.00
43701;BME280;58809;47.984;7.964;2023-08-12T00:15:10;97553.22;;;15.92;100.00
43701;BME280;58809;47.984;7.964;2023-08-12T00:18:12;97554.84;;;16.00;100.00
43701;BME280;58809;47.984;7.964;2023-08-12T00:21:14;97557.72;;;16.05;100.00
43701;BME280;58809;47.984;7.964;2023-08-12T00:24:16;97554.41;;;16.09;100.00
43701;BME280;58809;47.984;7.964;2023-08-12T00:27:18;97556.28;;;16.15;100.00
43701;BME280;58809;47.984;7.964;2023-08-12T00:30:19;97560.75;;;16.22;100.00
43701;BME280;58809;47.984;7.964;2023-08-12T00:33:21;97560.97;;;16.20;100.00
43701;BME280;58809;47.984;7.964;2023-08-12T00:36:23;97559.94;;;16.21;100.00
43701;BME280;58809;47.984;7.964;2023-08-12T00:39:24;97552.97;;;16.27;100.00
43701;BME280;58809;47.984;7.964;2023-08-12T00:42:26;97553.56;;;16.29;100.00
43701;BME280;58809;47.984;7.964;2023-08-12T00:45:28;97548.63;;;16.32;100.00
43701;BME280;58809;47.984;7.964;2023-08-12T00:48:29;97544.72;;;16.35;100.00
43701;BME280;58809;47.984;7.964;2023-08-12T00:51:33;97546.75;;;16.40;100.00
43701;BME280;58809;47.984;7.964;2023-08-12T00:54:36;97543.25;;;16.46;100.00
43701;BME280;58809;47.984;7.964;2023-08-12T00:57:38;97536.66;;;16.48;100.00
43701;BME280;58809;47.984;7.964;2023-08-12T01:00:40;97532.97;;;16.49;100.00
43701;BME280;58809;47.984;7.964;2023-08-12T01:03:41;97536.03;;;16.53;100.00
43701;BME280;58809;47.984;7.964;2023-08-12T01:06:43;97526.16;;;16.53;100.00
43701;BME280;58809;47.984;7.964;2023-08-12T01:09:45;97524.72;;;16.58;100.00
43701;BME280;58809;47.984;7.964;2023-08-12T01:12:52;97522.88;;;16.58;100.00
43701;BME280;58809;47.984;7.964;2023-08-12T01:16:00;97525.34;;;16.60;100.00
43701;BME280;58809;47.984;7.964;2023-08-12T01:19:06;97528.22;;;16.58;100.00
43701;BME280;58809;47.984;7.964;2023-08-12T01:22:12;97521.59;;;16.61;100.00
43701;BME280;58809;47.984;7.964;2023-08-12T01:25:14;97516.47;;;16.59;100.00
43701;BME280;58809;47.984;7.964;2023-08-12T01:28:15;97515.66;;;16.59;100.00
43701;BME280;58809;47.984;7.964;2023-08-12T01:31:32;97523.47;;;16.60;100.00
43701;BME280;58809;47.984;7.964;2023-08-12T01:34:39;97522.81;;;16.65;100.00
43701;BME280;58809;47.984;7.964;2023-08-12T01:37:42;97519.34;;;16.64;100.00
43701;BME280;58809;47.984;7.964;2023-08-12T01:40:45;97517.72;;;16.63;100.00
43701;BME280;58809;47.984;7.964;2023-08-12T01:43:47;97516.66;;;16.64;100.00
43701;BME280;58809;47.984;7.964;2023-08-12T01:46:50;97506.78;;;16.65;100.00
43701;BME280;58809;47.984;7.964;2023-08-12T01:49:52;97510.31;;;16.65;100.00
43701;BME280;58809;47.984;7.964;2023-08-12T01:52:54;97511.13;;;16.66;100.00
43701;BME280;58809;47.984;7.964;2023-08-12T01:55:55;97510.09;;;16.67;100.00
43701;BME280;58809;47.984;7.964;2023-08-12T01:58:57;97513.16;;;16.70;100.00
43701;BME280;58809;47.984;7.964;2023-08-12T02:01:59;97499.81;;;16.70;100.00
43701;BME280;58809;47.984;7.964;2023-08-12T02:05:01;97490.94;;;16.70;100.00
43701;BME280;58809;47.984;7.964;2023-08-12T02:08:04;97488.47;;;16.68;100.00
43701;BME280;58809;47.984;7.964;2023-08-12T02:11:08;97485.22;;;16.66;100.00
43701;BME280;58809;47.984;7.964;2023-08-12T02:14:10;97492.44;;;16.59;100.00
43701;BME280;58809;47.984;7.964;2023-08-12T02:17:12;97498.63;;;16.53;100.00
43701;BME280;58809;47.984;7.964;2023-08-12T02:20:14;97494.31;;;16.52;100.00
43701;BME280;58809;47.984;7.964;2023-08-12T02:23:16;97495.75;;;16.54;100.00
43701;BME280;58809;47.984;7.964;2023-08-12T02:26:17;97495.97;;;16.53;100.00
43701;BME280;58809;47.984;7.964;2023-08-12T02:29:21;97495.75;;;16.54;100.00
43701;BME280;58809;47.984;7.964;2023-08-12T02:32:23;97496.34;;;16.57;100.00
43701;BME280;58809;47.984;7.964;2023-08-12T02:35:25;97491.81;;;16.57;100.00
43701;BME280;58809;47.984;7.964;2023-08-12T02:38:26;97493.69;;;16.57;100.00
43701;BME280;58809;47.984;7.964;2023-08-12T02:41:28;97491.41;;;16.60;100.00
43701;BME280;58809;47.984;7.964;2023-08-12T02:44:29;97500.63;;;16.64;100.00
43701;BME280;58809;47.984;7.964;2023-08-12T02:47:31;97493.22;;;16.66;100.00
43701;BME280;58809;47.984;7.964;2023-08-12T02:50:33;97485.03;;;16.61;100.00
43701;BME280;58809;47.984;7.964;2023-08-12T02:53:34;97488.75;;;16.53;100.00
43701;BME280;58809;47.984;7.964;2023-08-12T02:56:36;97485.75;;;16.43;100.00
43701;BME280;58809;47.984;7.964;2023-08-12T02:59:37;97478.53;;;16.37;100.00
43701;BME280;58809;47.984;7.964;2023-08-12T03:02:42;97479.81;;;16.34;100.00
43701;BME280;58809;47.984;7.964;2023-08-12T03:05:48;97479.81;;;16.34;100.00
43701;BME280;58809;47.984;7.964;2023-08-12T03:08:50;97480.81;;;16.33;100.00
43701;BME280;58809;47.984;7.964;2023-08-12T03:11:51;97471.59;;;16.29;100.00
43701;BME280;58809;47.984;7.964;2023-08-12T03:14:53;97479.19;;;16.32;100.00
43701;BME280;58809;47.984;7.964;2023-08-12T03:17:56;97474.66;;;16.40;100.00
43701;BME280;58809;47.984;7.964;2023-08-12T03:20:58;97477.69;;;16.50;100.00
43701;BME280;58809;47.984;7.964;2023-08-12T03:24:00;97468.38;;;16.59;100.00
43701;BME280;58809;47.984;7.964;2023-08-12T03:27:03;97472.28;;;16.63;100.00
43701;BME280;58809;47.984;7.964;2023-08-12T03:30:06;97475.78;;;16.64;100.00
43701;BME280;58809;47.984;7.964;2023-08-12T03:33:08;97483.38;;;16.67;100.00
43701;BME280;58809;47.984;7.964;2023-08-12T03:36:11;97474.53;;;16.66;100.00
43701;BME280;58809;47.984;7.964;2023-08-12T03:39:13;97474.72;;;16.65;100.00
43701;BME280;58809;47.984;7.964;2023-08-12T03:42:16;97460.97;;;16.61;100.00
43701;BME280;58809;47.984;7.964;2023-08-12T03:45:18;97480.75;;;16.53;100.00
43701;BME280;58809;47.984;7.964;2023-08-12T03:48:20;97478.53;;;16.44;100.00
43701;BME280;58809;47.984;7.964;2023-08-12T03:51:22;97481.66;;;16.34;100.00
43701;BME280;58809;47.984;7.964;2023-08-12T03:54:24;97477.75;;;16.30;100.00
43701;BME280;58809;47.984;7.964;2023-08-12T03:57:25;97476.13;;;16.29;100.00
43701;BME280;58809;47.984;7.964;2023-08-12T04:00:27;97475.47;;;16.33;100.00
43701;BME280;58809;47.984;7.964;2023-08-12T04:03:33;97479.78;;;16.41;100.00
43701;BME280;58809;47.984;7.964;2023-08-12T04:06:34;97474.59;;;16.46;100.00
43701;BME280;58809;47.984;7.964;2023-08-12T04:09:36;97468.66;;;16.51;100.00
43701;BME280;58809;47.984;7.964;2023-08-12T04:12:39;97482.41;;;16.54;100.00
43701;BME280;58809;47.984;7.964;2023-08-12T04:15:41;97477.44;;;16.58;100.00
43701;BME280;58809;47.984;7.964;2023-08-12T04:18:43;97471.66;;;16.61;100.00
43701;BME280;58809;47.984;7.964;2023-08-12T04:21:44;97473.91;;;16.64;100.00
43701;BME280;58809;47.984;7.964;2023-08-12T04:24:48;97486.44;;;16.70;100.00
43701;BME280;58809;47.984;7.964;2023-08-12T04:27:50;97487.84;;;16.80;100.00
43701;BME280;58809;47.984;7.964;2023-08-12T04:30:52;97465.19;;;16.82;100.00
43701;BME280;58809;47.984;7.964;2023-08-12T04:33:55;97475.72;;;16.84;100.00
43701;BME280;58809;47.984;7.964;2023-08-12T04:36:58;97481.44;;;16.87;100.00
43701;BME280;58809;47.984;7.964;2023-08-12T04:40:00;97479.16;;;16.91;100.00
43701;BME280;58809;47.984;7.964;2023-08-12T04:43:03;97478.13;;;16.92;100.00
43701;BME280;58809;47.984;7.964;2023-08-12T04:46:05;97469.88;;;16.93;100.00
43701;BME280;58809;47.984;7.964;2023-08-12T04:49:08;97476.22;;;16.99;100.00
43701;BME280;58809;47.984;7.964;2023-08-12T04:52:10;97472.25;;;17.08;100.00
43701;BME280;58809;47.984;7.964;2023-08-12T04:55:12;97459.66;;;17.16;100.00
43701;BME280;58809;47.984;7.964;2023-08-12T04:58:15;97454.31;;;17.16;100.00
43701;BME280;58809;47.984;7.964;2023-08-12T05:01:16;97462.94;;;17.18;100.00
43701;BME280;58809;47.984;7.964;2023-08-12T05:04:18;97456.75;;;17.24;100.00
43701;BME280;58809;47.984;7.964;2023-08-12T05:07:20;97457.94;;;17.28;100.00
43701;BME280;58809;47.984;7.964;2023-08-12T05:10:21;97454.53;;;17.39;100.00
43701;BME280;58809;47.984;7.964;2023-08-12T05:13:24;97454.28;;;17.47;100.00
43701;BME280;58809;47.984;7.964;2023-08-12T05:16:26;97452.97;;;17.57;100.00
43701;BME280;58809;47.984;7.964;2023-08-12T05:19:28;97457.59;;;17.68;100.00
43701;BME280;58809;47.984;7.964;2023-08-12T05:22:30;97459.13;;;17.82;100.00
43701;BME280;58809;47.984;7.964;2023-08-12T05:25:31;97459.72;;;17.84;100.00
43701;BME280;58809;47.984;7.964;2023-08-12T05:28:33;97462.19;;;17.86;100.00
43701;BME280;58809;47.984;7.964;2023-08-12T05:31:34;97460.94;;;17.88;100.00
43701;BME280;58809;47.984;7.964;2023-08-12T05:34:36;97459.16;;;18.01;100.00
43701;BME280;58809;47.984;7.964;2023-08-12T05:37:37;97462.50;;;18.15;100.00
43701;BME280;58809;47.984;7.964;2023-08-12T05:40:39;97470.69;;;18.20;100.00
43701;BME280;58809;47.984;7.964;2023-08-12T05:43:40;97467.47;;;18.30;100.00
43701;BME280;58809;47.984;7.964;2023-08-12T05:46:42;97468.59;;;18.40;100.00
43701;BME280;58809;47.984;7.964;2023-08-12T05:49:43;97463.44;;;18.57;100.00
43701;BME280;58809;47.984;7.964;2023-08-12T05:52:45;97474.44;;;18.86;100.00
43701;BME280;58809;47.984;7.964;2023-08-12T05:55:47;97466.75;;;19.32;100.00
43701;BME280;58809;47.984;7.964;2023-08-12T05:58:48;97473.44;;;20.24;100.00
43701;BME280;58809;47.984;7.964;2023-08-12T06:01:50;97477.28;;;20.28;100.00
43701;BME280;58809;47.984;7.964;2023-08-12T06:04:51;97478.88;;;20.52;100.00
43701;BME280;58809;47.984;7.964;2023-08-12T06:07:53;97479.53;;;20.60;100.00
43701;BME280;58809;47.984;7.964;2023-08-12T06:10:55;97479.78;;;20.58;100.00
43701;BME280;58809;47.984;7.964;2023-08-12T06:13:56;97478.41;;;20.55;100.00
43701;BME280;58809;47.984;7.964;2023-08-12T06:16:58;97482.53;;;20.34;100.00
43701;BME280;58809;47.984;7.964;2023-08-12T06:19:59;97481.63;;;20.69;100.00
43701;BME280;58809;47.984;7.964;2023-08-12T06:23:01;97470.13;;;20.86;100.00
43701;BME280;58809;47.984;7.964;2023-08-12T06:26:03;97459.97;;;20.35;100.00
43701;BME280;58809;47.984;7.964;2023-08-12T06:29:04;97466.72;;;19.86;100.00
43701;BME280;58809;47.984;7.964;2023-08-12T06:32:06;97460.47;;;19.50;100.00
43701;BME280;58809;47.984;7.964;2023-08-12T06:35:08;97461.81;;;19.29;100.00
43701;BME280;58809;47.984;7.964;2023-08-12T06:38:10;97457.44;;;19.46;100.00
43701;BME280;58809;47.984;7.964;2023-08-12T06:41:11;97459.50;;;20.38;100.00
43701;BME280;58809;47.984;7.964;2023-08-12T06:44:13;97463.00;;;21.54;100.00
43701;BME280;58809;47.984;7.964;2023-08-12T06:47:14;97470.09;;;22.82;100.00
43701;BME280;58809;47.984;7.964;2023-08-12T06:50:16;97469.69;;;23.50;93.10
43701;BME280;58809;47.984;7.964;2023-08-12T06:53:18;97479.94;;;22.94;90.88
43701;BME280;58809;47.984;7.964;2023-08-12T06:56:19;97481.34;;;22.30;91.78
43701;BME280;58809;47.984;7.964;2023-08-12T06:59:21;97480.59;;;21.79;94.05
43701;BME280;58809;47.984;7.964;2023-08-12T07:02:23;97472.69;;;21.72;100.00
43701;BME280;58809;47.984;7.964;2023-08-12T07:05:24;97470.59;;;22.79;97.99
43701;BME280;58809;47.984;7.964;2023-08-12T07:11:28;97462.97;;;23.90;88.95
43701;BME280;58809;47.984;7.964;2023-08-12T07:14:30;97467.50;;;24.95;83.97
43701;BME280;58809;47.984;7.964;2023-08-12T07:17:31;97467.03;;;25.55;77.90
43701;BME280;58809;47.984;7.964;2023-08-12T07:20:33;97469.47;;;25.57;76.38
43701;BME280;58809;47.984;7.964;2023-08-12T07:23:35;97464.06;;;25.46;77.29
43701;BME280;58809;47.984;7.964;2023-08-12T07:26:36;97459.16;;;25.17;77.91
43701;BME280;58809;47.984;7.964;2023-08-12T07:29:38;97460.50;;;25.87;77.22
43701;BME280;58809;47.984;7.964;2023-08-12T07:32:39;97452.16;;;27.14;72.15
43701;BME280;58809;47.984;7.964;2023-08-12T07:35:41;97444.53;;;27.84;69.03
43701;BME280;58809;47.984;7.964;2023-08-12T07:38:43;97446.41;;;27.84;67.44
43701;BME280;58809;47.984;7.964;2023-08-12T07:41:44;97447.06;;;27.46;69.11
43701;BME280;58809;47.984;7.964;2023-08-12T07:44:46;97444.06;;;27.03;70.24
43701;BME280;58809;47.984;7.964;2023-08-12T07:47:49;97442.00;;;26.85;72.52
43701;BME280;58809;47.984;7.964;2023-08-12T07:50:57;97433.88;;;26.85;74.12
43701;BME280;58809;47.984;7.964;2023-08-12T07:53:59;97441.00;;;26.70;73.90
43701;BME280;58809;47.984;7.964;2023-08-12T07:57:00;97447.75;;;26.03;73.84
43701;BME280;58809;47.984;7.964;2023-08-12T08:00:02;97454.03;;;25.26;75.51
43701;BME280;58809;47.984;7.964;2023-08-12T08:03:05;97461.75;;;24.66;78.94
43701;BME280;58809;47.984;7.964;2023-08-12T08:06:06;97466.41;;;24.28;81.61
43701;BME280;58809;47.984;7.964;2023-08-12T08:09:08;97483.22;;;23.88;83.02
43701;BME280;58809;47.984;7.964;2023-08-12T08:12:10;97516.69;;;23.22;87.49
43701;BME280;58809;47.984;7.964;2023-08-12T08:15:12;97508.22;;;22.64;94.60
43701;BME280;58809;47.984;7.964;2023-08-12T08:18:13;97524.88;;;22.22;100.00
43701;BME280;58809;47.984;7.964;2023-08-12T08:21:15;97526.22;;;21.85;100.00
43701;BME280;58809;47.984;7.964;2023-08-12T08:24:17;97532.41;;;21.52;100.00
43701;BME280;58809;47.984;7.964;2023-08-12T08:27:19;97509.13;;;21.29;100.00
43701;BME280;58809;47.984;7.964;2023-08-12T08:30:21;97503.38;;;21.08;100.00
43701;BME280;58809;47.984;7.964;2023-08-12T08:33:26;97502.72;;;20.89;100.00
43701;BME280;58809;47.984;7.964;2023-08-12T08:36:28;97494.38;;;20.74;100.00
43701;BME280;58809;47.984;7.964;2023-08-12T08:39:30;97484.56;;;20.68;100.00
43701;BME280;58809;47.984;7.964;2023-08-12T08:42:33;97477.47;;;20.62;100.00
43701;BME280;58809;47.984;7.964;2023-08-12T08:45:37;97476.25;;;20.69;100.00
43701;BME280;58809;47.984;7.964;2023-08-12T08:48:39;97470.22;;;20.91;100.00
43701;BME280;58809;47.984;7.964;2023-08-12T08:51:41;97471.22;;;21.02;100.00
43701;BME280;58809;47.984;7.964;2023-08-12T08:54:44;97483.56;;;21.14;100.00
43701;BME280;58809;47.984;7.964;2023-08-12T08:57:47;97475.91;;;21.40;100.00
43701;BME280;58809;47.984;7.964;2023-08-12T09:00:49;97499.34;;;22.07;100.00
43701;BME280;58809;47.984;7.964;2023-08-12T09:03:51;97497.59;;;22.79;100.00
43701;BME280;58809;47.984;7.964;2023-08-12T09:06:55;97487.78;;;23.82;100.00
43701;BME280;58809;47.984;7.964;2023-08-12T09:09:58;97509.44;;;24.83;100.00
43701;BME280;58809;47.984;7.964;2023-08-12T09:13:01;97507.97;;;25.53;97.02
43701;BME280;58809;47.984;7.964;2023-08-12T09:16:03;97513.06;;;26.27;85.27
43701;BME280;58809;47.984;7.964;2023-08-12T09:19:05;97518.81;;;26.00;84.01
43701;BME280;58809;47.984;7.964;2023-08-12T09:22:07;97518.81;;;25.53;86.71
43701;BME280;58809;47.984;7.964;2023-08-12T09:25:12;97522.50;;;25.16;89.23
43701;BME280;58809;47.984;7.964;2023-08-12T09:28:14;97517.75;;;24.71;93.68
43701;BME280;58809;47.984;7.964;2023-08-12T09:31:23;97513.25;;;24.39;97.23
43701;BME280;58809;47.984;7.964;2023-08-12T09:34:29;97533.06;;;24.02;100.00
43701;BME280;58809;47.984;7.964;2023-08-12T09:37:31;97528.56;;;24.18;100.00
43701;BME280;58809;47.984;7.964;2023-08-12T09:40:34;97525.28;;;24.16;100.00
43701;BME280;58809;47.984;7.964;2023-08-12T09:43:43;97513.53;;;23.95;100.00
43701;BME280;58809;47.984;7.964;2023-08-12T09:46:44;97519.88;;;24.16;100.00
43701;BME280;58809;47.984;7.964;2023-08-12T09:49:46;97526.41;;;24.20;100.00
43701;BME280;58809;47.984;7.964;2023-08-12T09:52:47;97513.56;;;25.16;100.00
43701;BME280;58809;47.984;7.964;2023-08-12T09:55:52;97515.19;;;26.40;96.62
43701;BME280;58809;47.984;7.964;2023-08-12T09:58:55;97502.22;;;26.97;91.93
43701;BME280;58809;47.984;7.964;2023-08-12T10:01:57;97490.41;;;27.22;90.37
43701;BME280;58809;47.984;7.964;2023-08-12T10:04:59;97510.72;;;27.35;90.57
43701;BME280;58809;47.984;7.964;2023-08-12T10:08:02;97510.06;;;27.49;85.27
43701;BME280;58809;47.984;7.964;2023-08-12T10:11:05;97500.50;;;28.20;80.33
43701;BME280;58809;47.984;7.964;2023-08-12T10:14:14;97507.22;;;27.98;80.34
43701;BME280;58809;47.984;7.964;2023-08-12T10:17:16;97500.00;;;27.49;81.31
43701;BME280;58809;47.984;7.964;2023-08-12T10:20:39;97504.00;;;27.96;81.78
43701;BME280;58809;47.984;7.964;2023-08-12T10:23:42;97502.34;;;29.16;76.62
43701;BME280;58809;47.984;7.964;2023-08-12T10:26:48;97499.50;;;29.78;67.96
43701;BME280;58809;47.984;7.964;2023-08-12T10:29:50;97490.84;;;29.57;69.81
43701;BME280;58809;47.984;7.964;2023-08-12T10:32:52;97499.53;;;29.59;69.92
43701;BME280;58809;47.984;7.964;2023-08-12T10:35:55;97489.38;;;29.27;71.59
43701;BME280;58809;47.984;7.964;2023-08-12T10:38:57;97481.44;;;29.82;70.47
43701;BME280;58809;47.984;7.964;2023-08-12T10:41:59;97476.59;;;30.54;67.13
43701;BME280;58809;47.984;7.964;2023-08-12T10:45:04;97473.13;;;30.62;64.14
43701;BME280;58809;47.984;7.964;2023-08-12T10:48:16;97475.78;;;29.92;63.26
43701;BME280;58809;47.984;7.964;2023-08-12T10:51:39;97468.53;;;29.36;65.98
43701;BME280;58809;47.984;7.964;2023-08-12T10:54:40;97467.16;;;29.39;67.26
43701;BME280;58809;47.984;7.964;2023-08-12T10:57:42;97467.19;;;29.85;65.15
43701;BME280;58809;47.984;7.964;2023-08-12T11:00:44;97461.78;;;30.27;64.22
43701;BME280;58809;47.984;7.964;2023-08-12T11:03:47;97470.16;;;30.03;63.08
43701;BME280;58809;47.984;7.964;2023-08-12T11:06:49;97476.06;;;29.58;64.41
43701;BME280;58809;47.984;7.964;2023-08-12T11:09:52;97489.94;;;28.67;68.40
43701;BME280;58809;47.984;7.964;2023-08-12T11:12:55;97497.91;;;27.75;71.83
43701;BME280;58809;47.984;7.964;2023-08-12T11:16:07;97516.44;;;26.79;74.48
43701;BME280;58809;47.984;7.964;2023-08-12T11:19:11;97526.38;;;25.77;79.29
43701;BME280;58809;47.984;7.964;2023-08-12T11:22:12;97542.47;;;24.90;84.57
43701;BME280;58809;47.984;7.964;2023-08-12T11:25:15;97558.47;;;24.49;89.44
43701;BME280;58809;47.984;7.964;2023-08-12T11:51:47;97486.59;;;20.49;100.00
43701;BME280;58809;47.984;7.964;2023-08-12T11:54:52;97484.88;;;21.29;100.00
43701;BME280;58809;47.984;7.964;2023-08-12T11:57:54;97494.84;;;24.94;100.00
43701;BME280;58809;47.984;7.964;2023-08-12T12:00:55;97499.25;;;28.07;100.00
43701;BME280;58809;47.984;7.964;2023-08-12T12:04:00;97499.09;;;27.19;100.00
43701;BME280;58809;47.984;7.964;2023-08-12T12:07:02;97501.53;;;27.31;100.00
43701;BME280;58809;47.984;7.964;2023-08-12T12:10:08;97490.66;;;27.31;100.00
43701;BME280;58809;47.984;7.964;2023-08-12T12:13:09;97487.28;;;27.79;100.00
43701;BME280;58809;47.984;7.964;2023-08-12T12:16:12;97483.38;;;28.44;100.00
43701;BME280;58809;47.984;7.964;2023-08-12T12:19:18;97485.66;;;28.07;100.00
43701;BME280;58809;47.984;7.964;2023-08-12T12:22:20;97480.44;;;29.92;100.00
43701;BME280;58809;47.984;7.964;2023-08-12T12:25:22;97478.38;;;31.45;89.29
43701;BME280;58809;47.984;7.964;2023-08-12T12:28:23;97466.38;;;29.85;93.14
43701;BME280;58809;47.984;7.964;2023-08-12T12:31:25;97473.72;;;30.17;96.79
43701;BME280;58809;47.984;7.964;2023-08-12T12:34:26;97477.28;;;31.91;86.84
43701;BME280;58809;47.984;7.964;2023-08-12T12:37:28;97483.25;;;31.71;86.00
43701;BME280;58809;47.984;7.964;2023-08-12T12:40:30;97480.25;;;31.36;86.44
43701;BME280;58809;47.984;7.964;2023-08-12T12:43:31;97480.78;;;30.87;87.66
43701;BME280;58809;47.984;7.964;2023-08-12T12:46:33;97484.19;;;32.60;86.08
43701;BME280;58809;47.984;7.964;2023-08-12T12:49:34;97477.16;;;35.93;71.20
43701;BME280;58809;47.984;7.964;2023-08-12T12:52:36;97478.94;;;40.52;57.89
43701;BME280;58809;47.984;7.964;2023-08-12T12:55:38;97471.81;;;41.35;53.79
43701;BME280;58809;47.984;7.964;2023-08-12T12:58:39;97467.28;;;42.36;52.26
43701;BME280;58809;47.984;7.964;2023-08-12T13:01:41;97457.66;;;43.55;49.51
43701;BME280;58809;47.984;7.964;2023-08-12T13:04:43;97461.69;;;43.75;49.69
43701;BME280;58809;47.984;7.964;2023-08-12T13:07:45;97451.31;;;45.02;47.69
43701;BME280;58809;47.984;7.964;2023-08-12T13:10:47;97455.13;;;45.44;48.03
43701;BME280;58809;47.984;7.964;2023-08-12T13:13:49;97438.19;;;42.78;48.50
43701;BME280;58809;47.984;7.964;2023-08-12T13:16:50;97433.34;;;38.16;55.66
43701;BME280;58809;47.984;7.964;2023-08-12T13:19:52;97427.00;;;34.49;64.91
43701;BME280;58809;47.984;7.964;2023-08-12T13:22:53;97424.69;;;31.26;78.39
43701;BME280;58809;47.984;7.964;2023-08-12T13:25:55;97425.28;;;30.09;90.43
43701;BME280;58809;47.984;7.964;2023-08-12T13:28:56;97414.53;;;30.82;97.59
43701;BME280;58809;47.984;7.964;2023-08-12T13:31:58;97422.53;;;35.37;83.91
43701;BME280;58809;47.984;7.964;2023-08-12T13:34:59;97432.38;;;40.38;62.02
43701;BME280;58809;47.984;7.964;2023-08-12T13:38:01;97444.22;;;44.57;52.18
43701;BME280;58809;47.984;7.964;2023-08-12T13:41:02;97435.31;;;45.13;49.50
43701;BME280;58809;47.984;7.964;2023-08-12T13:44:04;97423.56;;;42.33;52.24
43701;BME280;58809;47.984;7.964;2023-08-12T13:47:06;97416.69;;;38.79;57.39
43701;BME280;58809;47.984;7.964;2023-08-12T13:50:08;97423.31;;;38.23;64.73
43701;BME280;58809;47.984;7.964;2023-08-12T13:53:09;97415.22;;;36.86;65.27
43701;BME280;58809;47.984;7.964;2023-08-12T13:56:11;97412.78;;;37.53;66.10
43701;BME280;58809;47.984;7.964;2023-08-12T13:59:12;97429.78;;;40.26;56.94
43701;BME280;58809;47.984;7.964;2023-08-12T14:02:15;97421.41;;;38.43;56.97
43701;BME280;58809;47.984;7.964;2023-08-12T14:05:16;97422.72;;;37.42;61.88
43701;BME280;58809;47.984;7.964;2023-08-12T14:08:18;97424.31;;;41.13;55.41
43701;BME280;58809;47.984;7.964;2023-08-12T14:11:20;97435.81;;;44.00;50.53
43701;BME280;58809;47.984;7.964;2023-08-12T14:14:22;97437.81;;;44.68;45.56
43701;BME280;58809;47.984;7.964;2023-08-12T14:17:23;97433.16;;;41.94;48.33
43701;BME280;58809;47.984;7.964;2023-08-12T14:20:27;97417.69;;;37.03;57.05
43701;BME280;58809;47.984;7.964;2023-08-12T14:23:28;97413.88;;;34.55;64.30
43701;BME280;58809;47.984;7.964;2023-08-12T14:26:30;97408.47;;;32.64;67.24
43701;BME280;58809;47.984;7.964;2023-08-12T14:29:31;97402.84;;;32.12;66.17
43701;BME280;58809;47.984;7.964;2023-08-12T14:32:33;97406.84;;;36.82;59.88
43701;BME280;58809;47.984;7.964;2023-08-12T14:35:34;97411.34;;;38.03;51.08
43701;BME280;58809;47.984;7.964;2023-08-12T14:38:37;97410.75;;;39.36;46.14
43701;BME280;58809;47.984;7.964;2023-08-12T14:41:38;97410.19;;;40.38;43.48
43701;BME280;58809;47.984;7.964;2023-08-12T14:44:40;97417.91;;;41.77;43.79
43701;BME280;58809;47.984;7.964;2023-08-12T14:47:41;97419.25;;;43.01;40.87
43701;BME280;58809;47.984;7.964;2023-08-12T14:50:43;97417.91;;;44.44;34.07
43701;BME280;58809;47.984;7.964;2023-08-12T14:53:45;97420.31;;;43.99;36.67
43701;BME280;58809;47.984;7.964;2023-08-12T14:56:49;97416.22;;;43.42;40.11
43701;BME280;58809;47.984;7.964;2023-08-12T14:59:50;97409.50;;;42.66;39.33
43701;BME280;58809;47.984;7.964;2023-08-12T15:02:52;97399.00;;;41.93;41.49
43701;BME280;58809;47.984;7.964;2023-08-12T15:06:00;97413.31;;;42.47;39.50
43701;BME280;58809;47.984;7.964;2023-08-12T15:09:02;97409.41;;;41.63;37.27
43701;BME280;58809;47.984;7.964;2023-08-12T15:12:04;97399.41;;;39.21;41.65
43701;BME280;58809;47.984;7.964;2023-08-12T15:15:06;97389.75;;;37.17;45.55
43701;BME280;58809;47.984;7.964;2023-08-12T15:18:07;97391.16;;;36.21;44.34
43701;BME280;58809;47.984;7.964;2023-08-12T15:21:09;97381.00;;;36.62;46.26
43701;BME280;58809;47.984;7.964;2023-08-12T15:24:11;97393.97;;;39.91;42.04
43701;BME280;58809;47.984;7.964;2023-08-12T15:27:12;97387.00;;;36.76;44.27
43701;BME280;58809;47.984;7.964;2023-08-12T15:30:15;97374.88;;;36.93;41.48
43701;BME280;58809;47.984;7.964;2023-08-12T15:33:16;97370.13;;;33.90;45.26
43701;BME280;58809;47.984;7.964;2023-08-12T15:36:18;97382.09;;;33.85;45.72
43701;BME280;58809;47.984;7.964;2023-08-12T15:39:20;97370.69;;;32.26;49.42
43701;BME280;58809;47.984;7.964;2023-08-12T15:42:21;97379.06;;;31.27;51.26
43701;BME280;58809;47.984;7.964;2023-08-12T15:45:23;97387.13;;;30.73;50.39
43701;BME280;58809;47.984;7.964;2023-08-12T15:48:24;97387.91;;;29.96;49.55
43701;BME280;58809;47.984;7.964;2023-08-12T15:51:26;97390.81;;;31.05;49.93
43701;BME280;58809;47.984;7.964;2023-08-12T15:54:27;97393.28;;;32.40;47.56
43701;BME280;58809;47.984;7.964;2023-08-12T15:57:30;97395.38;;;31.18;47.28
43701;BME280;58809;47.984;7.964;2023-08-12T16:00:31;97383.50;;;30.64;49.20
43701;BME280;58809;47.984;7.964;2023-08-12T16:03:33;97385.00;;;30.34;50.68
43701;BME280;58809;47.984;7.964;2023-08-12T16:06:34;97387.69;;;29.92;49.56
43701;BME280;58809;47.984;7.964;2023-08-12T16:09:36;97381.72;;;29.29;51.07
43701;BME280;58809;47.984;7.964;2023-08-12T16:12:38;97386.44;;;29.56;52.27
43701;BME280;58809;47.984;7.964;2023-08-12T16:15:40;97379.56;;;29.59;51.95
43701;BME280;58809;47.984;7.964;2023-08-12T16:18:42;97390.41;;;28.93;53.18
43701;BME280;58809;47.984;7.964;2023-08-12T16:21:43;97386.38;;;28.53;55.36
43701;BME280;58809;47.984;7.964;2023-08-12T16:24:45;97398.38;;;28.03;58.36
43701;BME280;58809;47.984;7.964;2023-08-12T16:27:47;97403.78;;;27.79;57.76